Time;durP1;ratioP1;P1;durP2;ratioP2;P2;SDS_P1;SDS_P2;PMS_P1;PMS_P2;Temp;Humidity;BMP_temperature;BMP_pressure;BME280_temperature;BME280_humidity;BME280_pressure;Samples;Min_cycle;Max_cycle;Signal;HPM_P1;HPM_P2
2022/08/03 00:01:54;;;;;;;9.00;8.80;;;19.40;99.90;;;;;;6225786;23;20314;-77
2022/08/03 00:04:23;;;;;;;8.90;8.70;;;19.40;99.90;;;;;;6225754;23;20238;-77
2022/08/03 00:06:53;;;;;;;8.98;8.77;;;19.40;99.90;;;;;;6225050;23;20730;-78
2022/08/03 00:09:22;;;;;;;9.00;8.80;;;19.40;99.90;;;;;;6225425;23;20297;-77
2022/08/03 00:11:51;;;;;;;9.05;8.85;;;19.40;99.90;;;;;;6225839;23;20203;-77
2022/08/03 00:14:20;;;;;;;9.00;8.80;;;19.40;99.90;;;;;;6224787;23;20777;-77
2022/08/03 00:16:51;;;;;;;9.10;8.90;;;19.30;99.90;;;;;;6224297;23;20289;-77
2022/08/03 00:19:20;;;;;;;9.10;8.90;;;19.30;99.90;;;;;;6225346;23;20294;-77
2022/08/03 00:21:49;;;;;;;9.15;8.90;;;19.30;99.90;;;;;;6226557;23;20281;-77
2022/08/03 00:24:18;;;;;;;8.80;8.60;;;19.20;99.90;;;;;;6226279;23;20282;-77
2022/08/03 00:26:48;;;;;;;8.63;8.43;;;19.20;99.90;;;;;;6225563;23;20250;-78
2022/08/03 00:29:17;;;;;;;9.00;8.80;;;19.20;99.90;;;;;;6225672;23;20203;-77
2022/08/03 00:31:46;;;;;;;8.88;8.68;;;19.20;99.90;;;;;;6226067;23;20205;-77
2022/08/03 00:34:26;;;;;;;8.88;8.68;;;19.10;99.90;;;;;;6225822;23;20266;-77
2022/08/03 00:36:54;;;;;;;8.90;8.70;;;19.10;99.90;;;;;;6225535;23;20273;-77
2022/08/03 00:39:25;;;;;;;9.00;8.80;;;19.10;99.90;;;;;;6224979;23;20211;-77
2022/08/03 00:41:54;;;;;;;8.90;8.70;;;19.00;99.90;;;;;;6225537;23;20657;-77
2022/08/03 00:44:23;;;;;;;9.20;8.90;;;19.00;99.90;;;;;;6225365;23;20245;-77
2022/08/03 00:46:53;;;;;;;8.75;8.55;;;19.00;99.90;;;;;;6225189;23;20222;-77
2022/08/03 00:49:24;;;;;;;8.95;8.75;;;19.00;99.90;;;;;;6225358;23;20269;-77
2022/08/03 00:51:52;;;;;;;9.00;8.80;;;18.90;99.90;;;;;;6236528;23;20201;-77
2022/08/03 00:54:21;;;;;;;9.00;8.80;;;18.90;99.90;;;;;;6228169;23;20235;-77
2022/08/03 00:56:50;;;;;;;8.80;8.60;;;18.80;99.90;;;;;;6228165;23;20233;-77
2022/08/03 00:59:19;;;;;;;8.75;8.55;;;18.80;99.90;;;;;;6227615;23;20290;-77
2022/08/03 01:01:49;;;;;;;8.93;8.73;;;18.80;99.90;;;;;;6227254;23;20277;-77
2022/08/03 01:04:19;;;;;;;8.90;8.70;;;18.70;99.90;;;;;;6224456;23;20209;-77
2022/08/03 01:07:00;;;;;;;8.82;8.63;;;18.70;99.90;;;;;;6224818;23;20274;-77
2022/08/03 01:09:39;;;;;;;8.93;8.73;;;18.60;99.90;;;;;;6225264;23;20207;-77
2022/08/03 01:12:14;;;;;;;8.73;8.52;;;18.60;99.90;;;;;;6225180;23;20210;-77
2022/08/03 01:14:54;;;;;;;8.98;8.77;;;18.50;99.90;;;;;;6224565;23;20194;-77
2022/08/03 01:17:29;;;;;;;9.07;8.88;;;18.50;99.90;;;;;;6223996;23;20274;-77
2022/08/03 01:20:08;;;;;;;8.70;8.50;;;18.50;99.90;;;;;;6225607;23;20238;-77
2022/08/03 01:23:32;;;;;;;8.77;8.57;;;18.50;99.90;;;;;;6225479;23;20278;-77
2022/08/03 01:26:53;;;;;;;8.73;8.52;;;18.40;99.90;;;;;;6223840;23;20246;-77
2022/08/03 01:29:56;;;;;;;8.70;8.50;;;18.40;99.90;;;;;;6224869;23;20222;-77
2022/08/03 01:32:35;;;;;;;8.70;8.50;;;18.30;99.90;;;;;;6224896;23;20202;-77
2022/08/03 01:35:07;;;;;;;8.43;8.23;;;18.30;99.90;;;;;;6223645;23;20194;-77
2022/08/03 01:37:42;;;;;;;8.60;8.40;;;18.30;99.90;;;;;;6225297;23;20245;-77
2022/08/03 01:40:13;;;;;;;8.55;8.35;;;18.20;99.90;;;;;;6236020;23;20250;-76
2022/08/03 01:42:42;;;;;;;8.50;8.30;;;18.20;99.90;;;;;;6240975;23;20191;-77
2022/08/03 01:45:14;;;;;;;8.40;8.20;;;18.10;99.90;;;;;;6230221;23;20199;-77
2022/08/03 01:47:45;;;;;;;8.50;8.30;;;18.10;99.90;;;;;;6227296;23;20222;-77
2022/08/03 01:50:13;;;;;;;8.50;8.30;;;18.00;99.90;;;;;;6225324;23;20198;-77
2022/08/03 01:52:42;;;;;;;8.88;8.68;;;18.00;99.90;;;;;;6224862;23;20195;-77
2022/08/03 01:55:12;;;;;;;8.55;8.35;;;18.00;99.90;;;;;;6223674;23;20207;-77
2022/08/03 01:57:43;;;;;;;8.77;8.57;;;18.00;99.90;;;;;;6224026;23;20265;-77
2022/08/03 02:00:14;;;;;;;8.23;8.02;;;18.00;99.90;;;;;;6223931;23;20197;-77
2022/08/03 02:02:44;;;;;;;8.55;8.35;;;17.90;99.90;;;;;;6224112;23;20205;-76
2022/08/03 02:05:13;;;;;;;8.32;8.13;;;17.90;99.90;;;;;;6239821;23;20223;-77
2022/08/03 02:07:42;;;;;;;8.38;8.18;;;17.80;99.90;;;;;;6226892;23;20289;-77
2022/08/03 02:10:14;;;;;;;8.10;7.90;;;17.80;99.90;;;;;;6226782;23;20202;-77
2022/08/03 02:12:45;;;;;;;8.50;8.30;;;17.80;99.90;;;;;;6226596;23;20199;-77
2022/08/03 02:15:21;;;;;;;8.40;8.20;;;17.70;99.90;;;;;;6225966;23;20193;-77
2022/08/03 02:17:53;;;;;;;8.60;8.40;;;17.60;99.90;;;;;;6227649;23;20226;-77
2022/08/03 02:20:22;;;;;;;8.50;8.30;;;17.60;99.90;;;;;;6227590;23;20273;-77
2022/08/03 02:22:51;;;;;;;8.40;8.20;;;17.60;99.90;;;;;;6226481;23;20199;-77
2022/08/03 02:25:21;;;;;;;8.10;7.90;;;17.60;99.90;;;;;;6226131;23;20282;-77
2022/08/03 02:27:59;;;;;;;8.35;8.15;;;17.60;99.90;;;;;;6226247;23;20209;-77
2022/08/03 02:30:38;;;;;;;8.50;8.30;;;17.60;99.90;;;;;;6226648;23;20277;-77
2022/08/03 02:33:14;;;;;;;8.40;8.20;;;17.60;99.90;;;;;;6226620;23;20202;-77
2022/08/03 02:35:45;;;;;;;8.50;8.30;;;17.50;99.90;;;;;;6225275;23;20194;-77
2022/08/03 02:38:15;;;;;;;8.38;8.18;;;17.50;99.90;;;;;;6226157;23;20294;-77
2022/08/03 02:40:44;;;;;;;8.50;8.30;;;17.50;99.90;;;;;;6225954;23;20282;-77
2022/08/03 02:43:22;;;;;;;8.40;8.20;;;17.50;99.90;;;;;;6225893;23;20201;-76
2022/08/03 02:46:01;;;;;;;8.30;8.10;;;17.50;99.90;;;;;;6225957;23;20195;-77
2022/08/03 02:48:33;;;;;;;8.40;8.20;;;17.50;99.90;;;;;;6225735;23;20290;-77
2022/08/03 02:51:08;;;;;;;8.38;8.18;;;17.40;99.90;;;;;;6225647;23;20195;-77
2022/08/03 02:53:38;;;;;;;8.88;8.68;;;17.30;99.90;;;;;;6226358;23;20281;-77
2022/08/03 02:56:07;;;;;;;8.50;8.30;;;17.30;99.90;;;;;;6225656;23;20274;-77
2022/08/03 02:58:37;;;;;;;8.60;8.40;;;17.20;99.90;;;;;;6224914;23;20278;-77
2022/08/03 03:01:09;;;;;;;8.52;8.32;;;17.10;99.90;;;;;;6224709;23;20211;-77
2022/08/03 03:03:37;;;;;;;8.80;8.60;;;17.10;99.90;;;;;;6224660;23;20215;-76
2022/08/03 03:06:05;;;;;;;8.50;8.30;;;17.10;99.90;;;;;;6223703;23;20266;-77
2022/08/03 03:08:34;;;;;;;8.85;8.65;;;17.00;99.90;;;;;;6224845;23;20258;-77
2022/08/03 03:11:04;;;;;;;8.60;8.40;;;17.00;99.90;;;;;;6225296;23;20206;-77
2022/08/03 03:13:34;;;;;;;8.60;8.40;;;17.00;99.90;;;;;;6234229;22;20215;-77
2022/08/03 03:16:04;;;;;;;8.50;8.30;;;17.00;99.90;;;;;;6234990;23;20266;-77
2022/08/03 03:18:35;;;;;;;8.38;8.18;;;16.90;99.90;;;;;;6227216;23;20275;-77
2022/08/03 03:21:04;;;;;;;8.30;8.10;;;16.90;99.90;;;;;;6225325;23;20194;-77
2022/08/03 03:23:38;;;;;;;8.50;8.30;;;16.90;99.90;;;;;;6225174;23;20203;-77
2022/08/03 03:26:09;;;;;;;9.55;9.25;;;16.90;99.90;;;;;;6223645;23;20215;-77
2022/08/03 03:28:39;;;;;;;9.50;9.20;;;16.80;99.90;;;;;;6224511;23;20211;-76
2022/08/03 03:31:08;;;;;;;9.43;9.13;;;16.80;99.90;;;;;;6224368;23;20195;-77
2022/08/03 03:33:46;;;;;;;9.60;9.30;;;16.80;99.90;;;;;;6223807;23;20282;-77
2022/08/03 03:36:17;;;;;;;9.70;9.40;;;16.70;99.90;;;;;;6224150;23;20205;-77
2022/08/03 03:38:44;;;;;;;9.50;9.20;;;16.60;99.90;;;;;;6219056;23;20223;-75
2022/08/03 03:41:12;;;;;;;9.45;9.15;;;16.60;99.90;;;;;;6223491;23;20811;-75
2022/08/03 03:43:40;;;;;;;9.80;9.50;;;16.50;99.90;;;;;;6223661;23;20206;-74
2022/08/03 03:46:07;;;;;;;9.68;9.38;;;16.50;99.90;;;;;;6223565;23;20233;-75
2022/08/03 03:48:36;;;;;;;9.90;9.60;;;16.50;99.90;;;;;;6224441;23;20203;-77
2022/08/03 03:51:04;;;;;;;9.68;9.38;;;16.30;99.90;;;;;;6223553;23;20258;-76
2022/08/03 03:53:32;;;;;;;9.45;9.15;;;16.30;99.90;;;;;;6223143;23;20302;-76
2022/08/03 03:55:59;;;;;;;9.30;9.00;;;16.30;99.90;;;;;;6223361;23;20254;-77
2022/08/03 03:58:27;;;;;;;9.52;9.23;;;16.30;99.90;;;;;;6223397;23;20241;-76
2022/08/03 04:00:54;;;;;;;9.30;9.00;;;16.30;99.90;;;;;;6223296;23;20211;-77
2022/08/03 04:03:21;;;;;;;9.40;9.10;;;16.30;99.90;;;;;;6222922;23;20298;-77
2022/08/03 04:11:24;;;;;;;9.15;8.85;;;16.40;99.90;;;;;;6222828;23;20179;-77
2022/08/03 04:13:55;;;;;;;9.38;9.07;;;16.30;99.90;;;;;;6222786;23;20195;-77
2022/08/03 04:16:27;;;;;;;9.25;8.95;;;16.30;99.90;;;;;;6221588;23;20202;-77
2022/08/03 04:19:01;;;;;;;8.82;8.63;;;16.30;99.90;;;;;;6223251;23;20217;-77
2022/08/03 04:21:32;;;;;;;9.27;8.98;;;16.30;99.90;;;;;;6223161;23;20197;-76
2022/08/03 04:24:04;;;;;;;9.30;9.00;;;16.30;99.90;;;;;;6223121;23;20205;-76
2022/08/03 04:26:36;;;;;;;9.50;9.20;;;16.30;99.90;;;;;;6222429;23;20242;-77
2022/08/03 04:29:06;;;;;;;9.50;9.20;;;16.30;99.90;;;;;;6222708;23;20206;-77
2022/08/03 04:31:35;;;;;;;9.60;9.30;;;16.30;99.90;;;;;;6222838;23;20282;-77
2022/08/03 04:34:03;;;;;;;9.50;9.20;;;16.40;99.90;;;;;;6222960;23;20206;-76
2022/08/03 04:36:38;;;;;;;9.50;9.20;;;16.50;99.90;;;;;;6222286;23;20215;-77
2022/08/03 04:39:11;;;;;;;9.60;9.30;;;16.50;99.90;;;;;;6222087;23;20293;-75
2022/08/03 04:41:39;;;;;;;9.05;8.77;;;16.50;99.90;;;;;;6223268;23;20277;-75
2022/08/03 04:44:08;;;;;;;9.30;9.00;;;16.50;99.90;;;;;;6222397;23;20218;-75
2022/08/03 04:46:39;;;;;;;9.40;9.10;;;16.60;99.90;;;;;;6221777;23;20203;-77
2022/08/03 04:49:07;;;;;;;9.38;9.07;;;16.60;99.90;;;;;;6222875;23;20234;-75
2022/08/03 04:51:39;;;;;;;9.30;9.00;;;16.60;99.90;;;;;;6222639;23;20213;-75
2022/08/03 04:54:07;;;;;;;9.45;9.15;;;16.60;99.90;;;;;;6223569;23;20206;-75
2022/08/03 04:56:35;;;;;;;9.50;9.20;;;16.70;99.90;;;;;;6223593;23;20201;-78
2022/08/03 04:59:03;;;;;;;9.43;9.13;;;16.70;99.90;;;;;;6224992;23;20211;-79
2022/08/03 05:01:32;;;;;;;9.60;9.30;;;16.80;99.90;;;;;;6223740;23;20226;-78
2022/08/03 05:04:00;;;;;;;9.60;9.30;;;16.90;99.90;;;;;;6223599;23;20237;-79
2022/08/03 05:06:27;;;;;;;9.75;9.45;;;16.90;99.90;;;;;;6223287;23;20202;-78
2022/08/03 05:08:56;;;;;;;9.68;9.38;;;17.00;99.90;;;;;;6223916;23;20302;-78
2022/08/03 05:11:25;;;;;;;9.77;9.48;;;17.10;99.90;;;;;;6224460;23;20263;-78
2022/08/03 05:13:52;;;;;;;9.90;9.60;;;17.20;99.90;;;;;;6224135;23;20294;-78
2022/08/03 05:16:20;;;;;;;9.88;9.57;;;17.30;99.90;;;;;;6224196;23;20206;-78
2022/08/03 05:18:47;;;;;;;10.00;9.70;;;17.30;99.90;;;;;;6224916;23;20213;-78
2022/08/03 05:21:15;;;;;;;9.98;9.68;;;17.40;99.90;;;;;;6224521;23;20402;-79
2022/08/03 05:23:43;;;;;;;9.95;9.65;;;17.60;99.90;;;;;;6225001;23;20207;-78
2022/08/03 05:26:12;;;;;;;9.98;9.68;;;17.70;99.90;;;;;;6224092;23;20203;-79
2022/08/03 05:28:40;;;;;;;10.15;9.85;;;17.80;99.90;;;;;;6226802;23;20338;-79
2022/08/03 05:31:07;;;;;;;9.70;9.40;;;17.90;99.90;;;;;;6228787;23;20219;-78
2022/08/03 05:33:35;;;;;;;9.98;9.68;;;18.10;99.90;;;;;;6224608;23;20271;-78
2022/08/03 05:36:07;;;;;;;9.70;9.40;;;18.30;99.90;;;;;;6222991;23;20305;-77
2022/08/03 05:38:36;;;;;;;9.70;9.40;;;18.50;99.90;;;;;;6223107;23;20213;-77
2022/08/03 05:41:04;;;;;;;9.50;9.20;;;18.60;99.90;;;;;;6223424;23;20195;-77
2022/08/03 05:43:33;;;;;;;9.60;9.30;;;18.70;99.90;;;;;;6224810;23;20195;-77
2022/08/03 05:46:00;;;;;;;9.80;9.50;;;18.80;99.90;;;;;;6223366;23;20223;-77
2022/08/03 05:48:28;;;;;;;10.07;9.77;;;19.00;99.90;;;;;;6223070;23;20207;-77
2022/08/03 05:50:55;;;;;;;9.73;9.43;;;19.10;99.90;;;;;;6224597;23;20285;-77
2022/08/03 05:53:23;;;;;;;9.68;9.38;;;19.30;99.90;;;;;;6224703;23;20206;-77
2022/08/03 05:55:50;;;;;;;9.95;9.65;;;19.40;99.90;;;;;;6224774;23;20190;-77
2022/08/03 05:58:18;;;;;;;9.90;9.60;;;19.60;99.90;;;;;;6225244;23;20245;-77
2022/08/03 06:00:47;;;;;;;10.15;9.85;;;19.60;99.90;;;;;;6221433;23;20209;-76
2022/08/03 06:03:14;;;;;;;9.98;9.68;;;19.70;99.90;;;;;;6222724;23;20195;-78
2022/08/03 06:05:42;;;;;;;9.93;9.63;;;19.70;99.90;;;;;;6222107;23;20286;-77
2022/08/03 06:08:09;;;;;;;10.10;9.80;;;19.80;99.90;;;;;;6223498;23;20287;-77
2022/08/03 06:10:37;;;;;;;10.30;10.00;;;19.90;99.90;;;;;;6223006;23;20266;-78
2022/08/03 06:13:04;;;;;;;10.40;10.10;;;20.10;99.90;;;;;;6225492;23;20222;-77
2022/08/03 06:15:34;;;;;;;10.50;10.20;;;20.10;99.90;;;;;;6222063;23;20191;-77
2022/08/03 06:18:03;;;;;;;10.15;9.85;;;20.30;99.90;;;;;;6223092;23;20210;-77
2022/08/03 06:20:30;;;;;;;10.38;10.07;;;20.50;99.90;;;;;;6224773;23;20202;-79
2022/08/03 06:22:59;;;;;;;10.35;10.05;;;20.60;99.90;;;;;;6228040;23;20250;-78
2022/08/03 06:25:26;;;;;;;10.35;10.05;;;20.70;99.90;;;;;;6228981;23;20198;-78
2022/08/03 06:27:54;;;;;;;10.50;10.20;;;20.80;99.90;;;;;;6235015;23;20263;-80
2022/08/03 06:30:22;;;;;;;10.45;10.15;;;21.00;99.90;;;;;;6233174;23;20206;-80
2022/08/03 06:32:49;;;;;;;10.30;10.00;;;21.10;99.90;;;;;;6229908;23;20186;-79
2022/08/03 06:35:18;;;;;;;10.35;10.05;;;21.20;99.90;;;;;;6228750;23;20206;-80
2022/08/03 06:37:47;;;;;;;10.57;10.27;;;21.40;99.90;;;;;;6228328;23;20257;-81
2022/08/03 06:40:22;;;;;;;10.57;10.27;;;21.40;99.90;;;;;;6229746;23;20269;-80
2022/08/03 06:42:49;;;;;;;10.70;10.40;;;21.50;99.90;;;;;;6228862;23;20283;-80
2022/08/03 06:45:19;;;;;;;10.65;10.35;;;21.60;99.90;;;;;;6227071;23;20262;-80
2022/08/03 06:47:47;;;;;;;10.70;10.40;;;21.70;99.90;;;;;;6227063;23;20226;-79
2022/08/03 06:50:14;;;;;;;10.60;10.30;;;21.90;99.90;;;;;;6227198;23;20230;-80
2022/08/03 06:52:46;;;;;;;10.65;10.35;;;22.00;99.90;;;;;;6227629;23;20286;-80
2022/08/03 06:55:13;;;;;;;10.90;10.60;;;22.20;99.90;;;;;;6226381;23;20219;-79
2022/08/03 06:57:41;;;;;;;10.63;10.32;;;22.30;99.90;;;;;;6228918;23;20207;-79
2022/08/03 07:00:10;;;;;;;10.75;10.45;;;22.40;99.90;;;;;;6236723;23;20199;-81
2022/08/03 07:02:38;;;;;;;10.88;10.57;;;22.60;99.90;;;;;;6239983;23;20195;-79
2022/08/03 07:05:08;;;;;;;10.55;10.25;;;22.60;99.90;;;;;;6230491;23;20195;-78
2022/08/03 07:07:38;;;;;;;10.63;10.32;;;22.70;99.90;;;;;;6230319;23;20230;-80
2022/08/03 07:10:11;;;;;;;10.77;10.48;;;22.80;99.90;;;;;;6229932;23;20211;-79
2022/08/03 07:12:40;;;;;;;10.60;10.30;;;22.90;99.90;;;;;;6226645;23;20198;-78
2022/08/03 07:15:09;;;;;;;10.63;10.32;;;23.10;99.90;;;;;;6227597;23;20198;-80
2022/08/03 07:17:37;;;;;;;10.93;10.63;;;23.20;99.90;;;;;;6229509;23;20199;-79
2022/08/03 07:20:07;;;;;;;10.85;10.55;;;23.40;99.90;;;;;;6226096;23;20237;-78
2022/08/03 07:22:36;;;;;;;10.98;10.68;;;23.50;99.90;;;;;;6230009;23;20198;-79
2022/08/03 07:25:04;;;;;;;11.10;10.80;;;23.70;99.90;;;;;;6227013;23;20191;-80
2022/08/03 07:27:35;;;;;;;10.95;10.65;;;23.80;99.90;;;;;;6230707;23;20210;-80
2022/08/03 07:30:06;;;;;;;10.70;10.40;;;24.00;99.90;;;;;;6229853;23;20199;-80
2022/08/03 07:32:34;;;;;;;11.18;10.88;;;24.10;99.90;;;;;;6231917;23;20203;-80
2022/08/03 07:35:01;;;;;;;11.20;10.90;;;24.20;99.90;;;;;;6239011;23;20210;-80
2022/08/03 07:37:32;;;;;;;11.20;10.90;;;24.30;99.90;;;;;;6242040;23;20218;-82
2022/08/03 07:40:01;;;;;;;11.13;10.82;;;24.40;99.90;;;;;;6245427;23;20191;-83
2022/08/03 07:42:30;;;;;;;11.15;10.85;;;24.60;99.90;;;;;;6236628;23;20210;-82
2022/08/03 07:45:02;;;;;;;11.10;10.80;;;24.70;99.90;;;;;;6234513;23;20199;-81
2022/08/03 07:47:31;;;;;;;11.15;10.85;;;24.90;99.90;;;;;;6233218;23;20194;-82
2022/08/03 07:49:59;;;;;;;11.20;10.90;;;25.00;99.90;;;;;;6233911;23;20191;-80
2022/08/03 07:55:15;;;;;;;11.20;10.90;;;25.20;99.90;;;;;;6243156;23;20196;-81
2022/08/03 07:57:45;;;;;;;10.45;10.15;;;25.40;99.90;;;;;;6236913;23;20226;-81
2022/08/03 08:00:22;;;;;;;10.55;10.25;;;25.50;99.90;;;;;;6236533;23;20195;-81
2022/08/03 08:02:53;;;;;;;10.70;10.40;;;25.60;99.90;;;;;;6236661;23;20217;-81
2022/08/03 08:05:22;;;;;;;10.68;10.38;;;25.70;99.90;;;;;;6234031;23;20198;-81
2022/08/03 08:07:51;;;;;;;10.60;10.30;;;25.70;99.90;;;;;;6234891;23;20230;-81
2022/08/03 08:10:21;;;;;;;10.60;10.30;;;25.80;99.90;;;;;;6234066;23;20233;-81
2022/08/03 08:12:49;;;;;;;10.68;10.38;;;26.00;99.90;;;;;;6230932;23;20239;-81
2022/08/03 08:15:26;;;;;;;11.27;10.98;;;26.30;99.90;;;;;;6230992;23;20209;-81
2022/08/03 08:17:58;;;;;;;11.63;11.23;;;26.50;99.90;;;;;;6231839;23;20222;-81
2022/08/03 08:20:28;;;;;;;11.50;11.20;;;26.60;99.90;;;;;;6231933;23;20194;-81
2022/08/03 08:22:58;;;;;;;11.07;10.77;;;26.90;99.90;;;;;;6231553;23;20210;-81
2022/08/03 08:25:26;;;;;;;11.20;10.90;;;27.00;99.90;;;;;;6230748;23;20202;-81
2022/08/03 08:27:55;;;;;;;11.10;10.80;;;27.20;99.90;;;;;;6230952;23;20199;-81
2022/08/03 08:30:25;;;;;;;11.57;11.18;;;27.30;99.90;;;;;;6231755;23;20230;-82
2022/08/03 08:32:54;;;;;;;11.27;10.98;;;27.50;99.90;;;;;;6231632;23;20195;-81
2022/08/03 08:35:24;;;;;;;11.02;10.73;;;27.60;99.90;;;;;;6230401;23;20222;-81
2022/08/03 08:37:53;;;;;;;11.30;11.00;;;27.80;99.90;;;;;;6231449;23;20237;-81
2022/08/03 08:40:22;;;;;;;11.00;10.70;;;28.00;99.90;;;;;;6232462;23;20191;-81
2022/08/03 08:42:51;;;;;;;11.00;10.70;;;28.20;99.90;;;;;;6232030;23;20199;-81
2022/08/03 08:45:18;;;;;;;11.15;10.85;;;28.40;99.90;;;;;;6231636;23;20207;-80
2022/08/03 08:47:49;;;;;;;11.10;10.80;;;28.40;99.90;;;;;;6231529;23;20195;-79
2022/08/03 08:50:21;;;;;;;11.15;10.85;;;28.50;99.90;;;;;;6232104;23;20193;-81
2022/08/03 08:52:50;;;;;;;11.05;10.75;;;28.90;99.90;;;;;;6231297;23;20245;-80
2022/08/03 08:55:22;;;;;;;11.20;10.90;;;29.20;99.90;;;;;;6229962;23;20194;-81
2022/08/03 08:57:57;;;;;;;11.18;10.88;;;29.40;99.90;;;;;;6231178;23;20285;-80
2022/08/03 09:00:29;;;;;;;11.35;11.05;;;29.70;99.90;;;;;;6230507;23;20225;-83
2022/08/03 09:03:02;;;;;;;11.68;11.27;;;29.70;99.90;;;;;;6230118;23;20226;-84
2022/08/03 09:05:37;;;;;;;11.63;11.23;;;29.80;99.90;;;;;;6244765;23;20199;-84
2022/08/03 09:08:06;;;;;;;11.48;11.18;;;30.10;99.90;;;;;;6247744;22;20187;-81
2022/08/03 09:10:34;;;;;;;11.75;11.35;;;30.40;99.90;;;;;;6246151;23;20202;-80
2022/08/03 09:13:03;;;;;;;11.63;11.23;;;30.60;99.90;;;;;;6235212;23;20210;-81
2022/08/03 09:15:36;;;;;;;11.75;11.35;;;30.70;99.90;;;;;;6231741;23;20207;-81
2022/08/03 09:18:08;;;;;;;11.30;11.00;;;30.80;99.90;;;;;;6231538;23;20217;-84
2022/08/03 09:20:43;;;;;;;11.40;11.10;;;31.10;99.90;;;;;;6231709;23;20191;-82
2022/08/03 09:23:11;;;;;;;11.15;10.85;;;31.30;99.90;;;;;;6230383;23;20190;-82
2022/08/03 09:25:41;;;;;;;11.30;11.00;;;31.50;99.90;;;;;;6230460;23;20229;-82
2022/08/03 09:28:11;;;;;;;11.25;10.95;;;31.70;99.90;;;;;;6227224;23;20926;-80
2022/08/03 09:30:41;;;;;;;11.45;11.10;;;31.80;99.90;;;;;;6231565;23;20198;-81
2022/08/03 09:33:19;;;;;;;11.40;11.10;;;32.00;99.90;;;;;;6230729;23;20230;-82
2022/08/03 09:35:49;;;;;;;10.90;10.60;;;32.10;99.90;;;;;;6229812;23;20228;-82
2022/08/03 09:41:26;;;;;;;10.48;10.18;;;32.70;99.90;;;;;;6225531;23;20238;-90
2022/08/03 09:44:03;;;;;;;10.70;10.40;;;33.10;99.90;;;;;;6230050;23;20191;-89
2022/08/03 09:47:13;;;;;;;10.60;10.30;;;33.50;99.90;;;;;;6237182;22;20205;-90
2022/08/03 09:54:00;;;;;;;12.03;11.63;;;33.40;99.90;;;;;;6135899;23;20374;-88
2022/08/03 10:36:20;;;;;;;11.70;11.30;;;34.10;99.90;;;;;;4982910;27;6150850;-89
2022/08/03 10:39:06;;;;;;;11.60;11.20;;;34.30;99.90;;;;;;5159616;27;20425;-89
2022/08/03 10:41:49;;;;;;;11.30;11.00;;;34.40;99.90;;;;;;5160953;27;20233;-89
2022/08/03 10:44:40;;;;;;;11.57;11.18;;;34.50;99.90;;;;;;5173298;27;20230;-89
2022/08/03 10:47:14;;;;;;;11.80;11.40;;;34.60;99.90;;;;;;5175043;27;20237;-87
2022/08/03 10:50:00;;;;;;;11.60;11.20;;;34.80;99.90;;;;;;5180054;27;20238;-89
2022/08/03 10:52:34;;;;;;;11.20;10.90;;;34.70;99.90;;;;;;5183436;27;20230;-87
2022/08/03 10:57:53;;;;;;;11.70;11.30;;;34.40;99.90;;;;;;5181850;27;20215;-87
2022/08/03 11:00:31;;;;;;;11.80;11.40;;;34.50;99.90;;;;;;5172736;27;20236;-87
2022/08/03 11:03:12;;;;;;;11.30;11.00;;;34.90;99.90;;;;;;5180819;27;20230;-87
2022/08/03 11:05:47;;;;;;;11.50;11.10;;;35.00;99.90;;;;;;5180839;27;20270;-86
2022/08/03 11:08:27;;;;;;;11.50;11.10;;;35.20;99.90;;;;;;5180390;27;20226;-87
2022/08/03 11:11:03;;;;;;;11.23;10.88;;;35.50;99.90;;;;;;5182584;27;20246;-87
2022/08/03 11:13:33;;;;;;;11.40;11.07;;;35.60;99.90;;;;;;5186415;27;20219;-87
2022/08/03 11:16:04;;;;;;;11.57;11.23;;;35.50;99.90;;;;;;5181507;27;20703;-88
2022/08/03 11:18:40;;;;;;;11.52;11.18;;;35.40;99.90;;;;;;5185490;27;20292;-86
2022/08/03 11:21:18;;;;;;;11.65;11.25;;;35.40;99.90;;;;;;5181442;27;20234;-86
2022/08/03 11:23:56;;;;;;;11.52;11.18;;;35.70;99.90;;;;;;5182104;27;20222;-85
2022/08/03 11:26:26;;;;;;;11.70;11.30;;;36.20;99.90;;;;;;5179734;27;20227;-86
2022/08/03 11:28:55;;;;;;;11.88;11.48;;;36.70;99.90;;;;;;5178935;27;20231;-85
2022/08/03 11:35:13;;;;;;;12.00;11.60;;;37.40;99.90;;;;;;5166816;27;21060;-88
2022/08/03 11:40:56;;;;;;;12.00;11.60;;;37.10;99.90;;;;;;5144832;27;20220;-86
2022/08/03 11:43:46;;;;;;;12.02;11.63;;;37.50;99.90;;;;;;5145876;27;20228;-88
2022/08/03 11:46:22;;;;;;;11.93;11.52;;;37.70;99.90;;;;;;5145512;27;20248;-88
2022/08/03 11:48:52;;;;;;;12.13;11.73;;;37.90;99.10;;;;;;5146108;27;20220;-87
2022/08/03 11:51:22;;;;;;;11.90;11.50;;;38.20;99.60;;;;;;5155890;27;20239;-87
2022/08/03 11:54:02;;;;;;;12.15;11.75;;;38.50;98.80;;;;;;5158967;27;20258;-86
2022/08/03 11:56:56;;;;;;;11.80;11.40;;;38.40;98.60;;;;;;5145016;27;20301;-85
2022/08/03 11:59:33;;;;;;;11.70;11.30;;;38.60;97.10;;;;;;5144451;27;20239;-86
2022/08/03 12:02:13;;;;;;;11.80;11.40;;;37.20;97.80;;;;;;5145763;27;20228;-85
2022/08/03 12:05:09;;;;;;;11.63;11.23;;;36.90;98.30;;;;;;5155226;27;20253;-85
2022/08/03 12:07:54;;;;;;;11.50;11.10;;;36.70;98.20;;;;;;5145045;27;20230;-88
2022/08/03 12:10:24;;;;;;;11.77;11.38;;;36.70;98.50;;;;;;5144841;27;20289;-86
2022/08/03 12:13:04;;;;;;;11.80;11.40;;;36.80;98.20;;;;;;5145264;27;20238;-87
2022/08/03 12:15:41;;;;;;;11.70;11.30;;;37.00;98.00;;;;;;5143845;27;20251;-87
2022/08/03 12:18:19;;;;;;;11.57;11.23;;;37.30;98.00;;;;;;5146120;27;20223;-91
2022/08/03 12:20:48;;;;;;;11.43;11.13;;;37.50;97.40;;;;;;5164913;27;20226;-88
2022/08/03 12:23:16;;;;;;;11.65;11.30;;;37.10;96.80;;;;;;5168250;27;20263;-88
2022/08/03 12:25:46;;;;;;;11.70;11.30;;;36.90;96.70;;;;;;5165456;27;20260;-86
2022/08/03 12:28:24;;;;;;;11.57;11.20;;;36.80;97.00;;;;;;5172077;27;20223;-86
2022/08/03 12:30:54;;;;;;;11.70;11.30;;;36.50;98.10;;;;;;5165462;27;20223;-87
2022/08/03 12:33:32;;;;;;;11.40;11.10;;;36.80;96.70;;;;;;5164857;27;20265;-87
2022/08/03 12:36:11;;;;;;;11.70;11.32;;;37.10;98.00;;;;;;5164221;27;20259;-88
2022/08/03 12:38:39;;;;;;;11.93;11.52;;;37.50;96.60;;;;;;5164989;27;20227;-87
2022/08/03 12:41:12;;;;;;;11.95;11.55;;;38.00;95.60;;;;;;5164726;27;20247;-86
2022/08/03 12:44:06;;;;;;;11.65;11.27;;;38.30;95.20;;;;;;5165109;27;20227;-89
2022/08/03 12:46:45;;;;;;;11.82;11.43;;;38.40;95.60;;;;;;5163686;27;20224;-88
2022/08/03 12:49:21;;;;;;;11.75;11.35;;;38.80;94.30;;;;;;5176788;27;20242;-89
2022/08/03 12:52:00;;;;;;;11.90;11.50;;;38.70;94.80;;;;;;5167428;27;20219;-90
2022/08/03 12:54:32;;;;;;;12.00;11.60;;;39.10;94.30;;;;;;5170624;27;20238;-86
2022/08/03 12:57:03;;;;;;;11.90;11.50;;;39.40;93.50;;;;;;5179421;27;20260;-85
2022/08/03 12:59:54;;;;;;;11.90;11.50;;;39.50;93.30;;;;;;5181759;27;20230;-87
2022/08/03 13:02:29;;;;;;;11.90;11.50;;;39.50;93.00;;;;;;5181904;27;20202;-87
2022/08/03 13:08:55;;;;;;;11.45;11.15;;;39.70;92.10;;;;;;5169684;27;20228;-87
2022/08/03 13:14:10;;;;;;;11.40;11.10;;;38.40;92.50;;;;;;5165209;27;20252;-87
2022/08/03 13:16:40;;;;;;;11.60;11.20;;;38.60;93.20;;;;;;5165024;27;20249;-87
2022/08/03 13:19:09;;;;;;;11.60;11.20;;;39.00;92.50;;;;;;5164970;27;20288;-89
2022/08/03 13:24:25;;;;;;;11.52;11.18;;;38.80;91.90;;;;;;5163480;27;21089;-87
2022/08/03 13:26:53;;;;;;;11.77;11.38;;;38.50;92.30;;;;;;5164210;27;20227;-86
2022/08/03 13:29:23;;;;;;;11.57;11.20;;;38.50;92.00;;;;;;5163995;27;20280;-87
2022/08/03 13:34:48;;;;;;;11.50;11.15;;;39.50;92.60;;;;;;5163210;27;20235;-88
2022/08/03 13:37:17;;;;;;;11.40;11.10;;;39.90;91.90;;;;;;5171474;27;20276;-87
2022/08/03 13:39:47;;;;;;;11.55;11.20;;;40.20;91.70;;;;;;5164585;27;20283;-88
2022/08/03 13:42:16;;;;;;;11.30;11.00;;;40.40;91.60;;;;;;5171521;27;20223;-87
2022/08/03 13:44:47;;;;;;;11.65;11.25;;;40.50;91.20;;;;;;5173144;27;20226;-88
2022/08/03 13:47:18;;;;;;;11.70;11.30;;;40.70;90.90;;;;;;5165947;27;20249;-87
2022/08/03 13:49:49;;;;;;;11.80;11.40;;;40.80;91.10;;;;;;5166943;27;20287;-89
2022/08/03 13:52:17;;;;;;;12.00;11.60;;;40.90;91.00;;;;;;5164141;27;20230;-87
2022/08/03 13:54:44;;;;;;;11.60;11.25;;;41.10;90.40;;;;;;5162568;27;20215;-87
2022/08/03 13:57:13;;;;;;;12.02;11.63;;;40.40;89.70;;;;;;5164901;27;20256;-88
2022/08/03 13:59:43;;;;;;;11.93;11.52;;;40.50;90.90;;;;;;5163635;27;20271;-90
2022/08/03 14:02:12;;;;;;;11.95;11.55;;;40.80;90.60;;;;;;5163288;27;20230;-89
2022/08/03 14:04:50;;;;;;;11.82;11.43;;;40.60;89.30;;;;;;5163585;27;20227;-89
2022/08/03 14:07:20;;;;;;;11.85;11.45;;;40.60;88.30;;;;;;5163430;27;20277;-88
2022/08/03 14:09:50;;;;;;;11.43;11.13;;;40.70;89.10;;;;;;5162080;27;20245;-88
2022/08/03 14:12:19;;;;;;;11.70;11.30;;;41.20;89.10;;;;;;5162586;27;20230;-88
2022/08/03 14:14:49;;;;;;;11.80;11.40;;;40.90;87.90;;;;;;5162879;27;20219;-87
2022/08/03 14:17:17;;;;;;;11.68;11.27;;;40.70;89.50;;;;;;5162439;27;20231;-86